createdAt,value
2023-04-03T00:01:05.594Z,4.43
2023-04-03T00:03:32.151Z,4.05
2023-04-03T00:06:01.055Z,4.09
2023-04-03T00:08:27.562Z,3.92
2023-04-03T00:10:54.052Z,3.86
2023-04-03T00:13:20.531Z,4.20
2023-04-03T00:15:49.515Z,4.19
2023-04-03T00:18:16.036Z,4.23
2023-04-03T00:20:42.479Z,4.30
2023-04-03T00:23:11.947Z,4.26
2023-04-03T00:25:38.683Z,4.24
2023-04-03T00:28:05.864Z,4.13
2023-04-03T00:30:32.864Z,4.18
2023-04-03T00:33:02.326Z,4.06
2023-04-03T00:35:29.657Z,4.04
2023-04-03T00:37:56.699Z,3.78
2023-04-03T00:40:27.653Z,3.71
2023-04-03T00:42:59.805Z,3.92
2023-04-03T00:45:36.231Z,3.94
2023-04-03T00:48:07.352Z,3.86
2023-04-03T00:50:37.060Z,3.87
2023-04-03T00:53:06.120Z,3.90
2023-04-03T00:55:33.731Z,4.06
2023-04-03T00:58:02.402Z,4.07
2023-04-03T01:00:29.389Z,3.98
2023-04-03T01:02:56.067Z,3.62
2023-04-03T01:05:23.041Z,3.63
2023-04-03T01:07:54.568Z,3.74
2023-04-03T01:10:21.808Z,3.85
2023-04-03T01:12:51.271Z,3.74
2023-04-03T01:15:27.318Z,3.78
2023-04-03T01:17:58.055Z,3.87
2023-04-03T01:20:37.332Z,3.83
2023-04-03T01:23:13.458Z,3.69
2023-04-03T01:25:52.204Z,3.37
2023-04-03T01:28:28.462Z,3.57
2023-04-03T01:31:21.078Z,3.66
2023-04-03T01:33:52.363Z,3.61
2023-04-03T01:36:22.875Z,3.69
2023-04-03T01:38:49.512Z,3.70
2023-04-03T01:41:18.868Z,3.69
2023-04-03T01:43:45.632Z,3.59
2023-04-03T01:46:12.384Z,3.56
2023-04-03T01:48:39.045Z,3.53
2023-04-03T01:51:05.788Z,3.64
2023-04-03T01:53:32.229Z,3.62
2023-04-03T01:55:58.643Z,3.57
2023-04-03T01:58:25.452Z,3.46
2023-04-03T02:00:52.497Z,3.44
2023-04-03T02:03:19.476Z,3.40
2023-04-03T02:05:46.267Z,3.50
2023-04-03T02:08:13.195Z,3.54
2023-04-03T02:10:39.622Z,3.43
2023-04-03T02:13:06.243Z,3.12
2023-04-03T02:15:32.642Z,3.30
2023-04-03T02:17:59.092Z,3.37
2023-04-03T02:20:25.680Z,3.48
2023-04-03T02:22:54.448Z,3.44
2023-04-03T02:25:21.307Z,3.26
2023-04-03T02:27:53.085Z,3.39
2023-04-03T02:30:19.596Z,3.40
2023-04-03T02:32:46.266Z,3.42
2023-04-03T02:35:15.024Z,3.52
2023-04-03T02:37:41.565Z,3.49
2023-04-03T02:40:09.889Z,3.49
2023-04-03T02:42:36.389Z,3.39
2023-04-03T02:45:05.532Z,3.38
2023-04-03T02:47:32.093Z,3.42
2023-04-03T02:50:01.102Z,3.39
2023-04-03T02:52:27.601Z,3.32
2023-04-03T02:54:53.952Z,3.28
2023-04-03T02:57:21.100Z,3.29
2023-04-03T02:59:47.745Z,3.31
2023-04-03T03:02:14.171Z,3.18
2023-04-03T03:04:43.710Z,3.11
2023-04-03T03:07:10.475Z,3.09
2023-04-03T03:09:37.087Z,3.14
2023-04-03T03:12:03.855Z,2.96
2023-04-03T03:14:30.424Z,3.02
2023-04-03T03:16:56.743Z,3.18
2023-04-03T03:19:23.342Z,3.12
2023-04-03T03:21:49.828Z,3.07
2023-04-03T03:24:16.781Z,2.99
2023-04-03T03:26:43.617Z,2.91
2023-04-03T03:29:10.002Z,3.03
2023-04-03T03:31:36.435Z,2.94
2023-04-03T03:34:03.235Z,2.87
2023-04-03T03:36:29.612Z,2.81
2023-04-03T03:38:56.108Z,2.74
2023-04-03T03:41:22.562Z,2.62
2023-04-03T03:43:58.720Z,2.72
2023-04-03T03:46:25.268Z,2.57
2023-04-03T03:48:51.799Z,2.74
2023-04-03T03:51:18.270Z,2.55
2023-04-03T03:53:44.639Z,2.57
2023-04-03T03:56:11.389Z,2.51
2023-04-03T03:58:38.191Z,2.52
2023-04-03T04:01:06.758Z,2.36
2023-04-03T04:03:34.135Z,2.39
2023-04-03T04:06:01.103Z,2.33
2023-04-03T04:08:27.556Z,2.36
2023-04-03T04:10:53.976Z,2.47
2023-04-03T04:13:23.029Z,2.48
2023-04-03T04:15:49.667Z,2.40
2023-04-03T04:18:16.182Z,2.44
2023-04-03T04:20:46.353Z,2.25
2023-04-03T04:23:12.768Z,2.26
2023-04-03T04:25:41.657Z,2.37
2023-04-03T04:28:08.172Z,2.30
2023-04-03T04:30:36.950Z,2.41
2023-04-03T04:33:04.053Z,2.42
2023-04-03T04:35:30.518Z,2.46
2023-04-03T04:37:57.273Z,2.36
2023-04-03T04:40:23.897Z,2.43
2023-04-03T04:42:50.622Z,2.53
2023-04-03T04:45:17.248Z,2.25
2023-04-03T04:47:43.862Z,2.34
2023-04-03T04:50:13.476Z,2.38
2023-04-03T04:52:40.060Z,2.44
2023-04-03T04:55:06.882Z,2.43
2023-04-03T04:57:33.490Z,2.29
2023-04-03T05:00:00.068Z,2.38
2023-04-03T05:02:28.859Z,2.28
2023-04-03T05:04:55.533Z,2.26
2023-04-03T05:07:22.174Z,2.44
2023-04-03T05:09:48.688Z,2.39
2023-04-03T05:12:18.264Z,2.39
2023-04-03T05:14:44.654Z,2.46
2023-04-03T05:17:11.148Z,2.61
2023-04-03T05:19:37.641Z,2.56
2023-04-03T05:22:04.046Z,2.70
2023-04-03T05:24:30.824Z,2.69
2023-04-03T05:26:57.241Z,2.65
2023-04-03T05:29:23.650Z,2.63
2023-04-03T05:31:51.387Z,2.71
2023-04-03T05:34:25.448Z,2.73
2023-04-03T05:36:51.963Z,2.79
2023-04-03T05:39:18.644Z,3.04
2023-04-03T05:41:47.544Z,3.23
2023-04-03T05:44:13.950Z,3.21
2023-04-03T05:46:42.672Z,3.31
2023-04-03T05:49:09.070Z,3.32
2023-04-03T05:51:37.279Z,3.36
2023-04-03T05:54:17.273Z,3.44
2023-04-03T05:56:43.989Z,3.43
2023-04-03T05:59:10.435Z,3.44
2023-04-03T06:01:36.792Z,3.31
2023-04-03T06:04:04.249Z,3.39
2023-04-03T06:06:52.598Z,3.59
2023-04-03T06:09:21.850Z,3.59
2023-04-03T06:11:50.518Z,3.51
2023-04-03T06:14:19.300Z,3.43
2023-04-03T06:16:46.427Z,3.76
2023-04-03T06:19:13.280Z,3.80
2023-04-03T06:21:39.820Z,3.93
2023-04-03T06:24:06.866Z,4.18
2023-04-03T06:26:34.236Z,4.30
2023-04-03T06:29:01.156Z,4.44
2023-04-03T06:31:27.792Z,4.63
2023-04-03T06:33:54.620Z,4.80
2023-04-03T06:36:21.995Z,4.79
2023-04-03T06:38:56.115Z,5.13
2023-04-03T06:41:22.915Z,5.31
2023-04-03T06:43:49.518Z,5.83
2023-04-03T06:46:21.987Z,5.94
2023-04-03T06:48:49.650Z,6.46
2023-04-03T06:51:24.551Z,6.61
2023-04-03T06:53:55.388Z,6.72
2023-04-03T06:56:22.501Z,6.98
2023-04-03T06:58:49.704Z,6.66
2023-04-03T07:01:20.077Z,6.73
2023-04-03T07:03:48.923Z,7.01
2023-04-03T07:06:17.620Z,6.93
2023-04-03T07:08:44.674Z,7.08
2023-04-03T07:11:14.581Z,7.36
2023-04-03T07:13:41.419Z,7.19
2023-04-03T07:16:11.420Z,7.39
2023-04-03T07:18:38.073Z,7.15
2023-04-03T07:21:05.135Z,7.75
2023-04-03T07:23:31.573Z,7.89
2023-04-03T07:25:58.188Z,8.35
2023-04-03T07:28:25.353Z,8.15
2023-04-03T07:30:57.131Z,7.73
2023-04-03T07:33:24.040Z,8.52
2023-04-03T07:35:50.675Z,8.07
2023-04-03T07:38:17.343Z,8.10
2023-04-03T07:40:48.414Z,8.08
2023-04-03T07:43:15.916Z,7.90
2023-04-03T07:45:44.169Z,8.11
2023-04-03T07:48:14.313Z,7.70
2023-04-03T07:50:41.960Z,7.84
2023-04-03T07:53:09.008Z,7.94
2023-04-03T07:55:43.818Z,8.10
2023-04-03T07:58:15.652Z,8.03
2023-04-03T08:00:45.527Z,7.88
2023-04-03T08:03:12.900Z,8.02
2023-04-03T08:05:43.784Z,8.23
2023-04-03T08:08:12.661Z,7.95
2023-04-03T08:10:39.195Z,8.22
2023-04-03T08:13:10.777Z,8.14
2023-04-03T08:15:37.796Z,8.25
2023-04-03T08:18:04.850Z,8.29
2023-04-03T08:20:34.466Z,8.47
2023-04-03T08:23:00.907Z,9.05
2023-04-03T08:25:30.519Z,8.57
2023-04-03T08:27:59.364Z,8.34
2023-04-03T08:30:26.038Z,8.46
2023-04-03T08:32:52.757Z,8.31
2023-04-03T08:35:20.906Z,8.43
2023-04-03T08:37:47.718Z,8.56
2023-04-03T08:40:17.153Z,8.28
2023-04-03T08:43:07.389Z,8.12
2023-04-03T08:45:56.986Z,8.59
2023-04-03T08:48:37.655Z,8.44
2023-04-03T08:51:15.890Z,8.48
2023-04-03T08:53:59.321Z,8.62
2023-04-03T08:56:28.477Z,8.77
2023-04-03T08:59:05.468Z,8.85
2023-04-03T09:01:41.776Z,8.84
2023-04-03T09:04:19.480Z,9.05
2023-04-03T09:07:01.005Z,8.96
2023-04-03T09:09:42.343Z,8.45
2023-04-03T09:12:20.757Z,8.38
2023-04-03T09:14:58.737Z,8.61
2023-04-03T09:17:36.349Z,8.34
2023-04-03T09:20:26.941Z,8.74
2023-04-03T09:22:54.912Z,8.85
2023-04-03T09:25:28.282Z,8.86
2023-04-03T09:27:55.389Z,8.90
2023-04-03T09:30:27.086Z,9.01
2023-04-03T09:32:55.721Z,9.30
2023-04-03T09:35:36.384Z,9.54
2023-04-03T09:38:10.892Z,9.42
2023-04-03T09:40:42.153Z,9.24
2023-04-03T09:43:17.668Z,9.40
2023-04-03T09:45:48.514Z,9.51
2023-04-03T09:48:16.261Z,10.10
2023-04-03T09:50:52.293Z,10.43
2023-04-03T09:53:45.604Z,10.23
2023-04-03T09:56:17.981Z,10.48
2023-04-03T09:59:14.634Z,10.91
2023-04-03T10:01:43.077Z,11.12
2023-04-03T10:04:20.669Z,11.04
2023-04-03T10:06:51.024Z,10.24
2023-04-03T10:09:22.003Z,9.75
2023-04-03T10:12:07.754Z,9.62
2023-04-03T10:14:36.974Z,9.30
2023-04-03T10:17:09.724Z,9.10
2023-04-03T10:19:53.946Z,9.16
2023-04-03T10:22:31.401Z,9.01
2023-04-03T10:25:32.867Z,8.76
2023-04-03T10:28:03.885Z,9.01
2023-04-03T10:30:59.363Z,9.37
2023-04-03T10:33:50.671Z,9.53
2023-04-03T10:36:41.009Z,9.40
2023-04-03T10:39:23.020Z,9.16
2023-04-03T10:42:16.705Z,9.38
2023-04-03T10:44:51.480Z,9.48
2023-04-03T10:47:52.895Z,9.13
2023-04-03T10:50:42.767Z,9.22
2023-04-03T10:53:25.063Z,9.52
2023-04-03T10:55:56.411Z,9.67
2023-04-03T10:58:32.704Z,9.70
2023-04-03T11:01:08.041Z,9.38
2023-04-03T11:03:41.551Z,9.57
2023-04-03T11:06:15.589Z,9.81
2023-04-03T11:09:03.954Z,9.63
2023-04-03T11:11:40.824Z,9.87
2023-04-03T11:14:14.242Z,9.91
2023-04-03T11:17:02.595Z,9.75
2023-04-03T11:20:07.786Z,9.82
2023-04-03T11:22:41.929Z,9.75
2023-04-03T11:25:17.588Z,10.46
2023-04-03T11:28:12.878Z,10.25
2023-04-03T11:31:04.771Z,10.53
2023-04-03T11:33:53.528Z,10.00
2023-04-03T11:36:28.843Z,9.96
2023-04-03T11:39:11.187Z,9.83
2023-04-03T11:41:39.956Z,9.47
2023-04-03T11:44:28.278Z,9.53
2023-04-03T11:46:59.508Z,9.70
2023-04-03T11:49:59.054Z,9.37
2023-04-03T11:52:44.807Z,9.44
2023-04-03T11:55:23.293Z,9.45
2023-04-03T11:57:59.139Z,9.60
2023-04-03T12:00:44.551Z,9.60
2023-04-03T12:03:26.028Z,9.48
2023-04-03T12:05:53.741Z,9.63
2023-04-03T12:08:34.307Z,9.50
2023-04-03T12:11:26.332Z,9.88
2023-04-03T12:13:52.662Z,9.57
2023-04-03T12:16:43.291Z,9.51
2023-04-03T12:19:15.854Z,9.73
2023-04-03T12:21:49.055Z,9.53
2023-04-03T12:24:18.616Z,9.60
2023-04-03T12:27:22.057Z,9.42
2023-04-03T12:29:55.184Z,9.53
2023-04-03T12:32:49.307Z,9.43
2023-04-03T12:35:29.592Z,9.54
2023-04-03T12:38:31.755Z,9.47
2023-04-03T12:41:23.493Z,8.92
2023-04-03T12:44:05.212Z,9.20
2023-04-03T12:46:43.114Z,9.49
2023-04-03T12:49:38.586Z,9.69
2023-04-03T12:52:29.923Z,8.95
2023-04-03T12:54:58.302Z,9.19
2023-04-03T12:57:27.452Z,8.64
2023-04-03T12:59:57.342Z,8.73
2023-04-03T13:02:30.998Z,9.31
2023-04-03T13:05:06.664Z,10.10
2023-04-03T13:07:38.305Z,10.18
2023-04-03T13:10:16.932Z,10.07
2023-04-03T13:12:55.096Z,9.94
2023-04-03T13:15:28.065Z,9.82
2023-04-03T13:17:55.642Z,9.82
2023-04-03T13:20:28.099Z,9.23
2023-04-03T13:22:59.314Z,9.04
2023-04-03T13:25:30.905Z,9.12
2023-04-03T13:28:12.723Z,8.81
2023-04-03T13:30:41.954Z,8.81
2023-04-03T13:33:30.422Z,8.98
2023-04-03T13:36:02.860Z,8.89
2023-04-03T13:38:34.874Z,9.24
2023-04-03T13:41:06.055Z,9.56
2023-04-03T13:43:37.833Z,9.96
2023-04-03T13:46:13.391Z,10.09
2023-04-03T13:48:49.266Z,10.22
2023-04-03T13:51:15.996Z,9.81
2023-04-03T13:53:56.483Z,10.20
2023-04-03T13:56:34.725Z,10.44
2023-04-03T13:59:25.484Z,10.51
2023-04-03T14:02:03.843Z,10.27
2023-04-03T14:04:45.740Z,9.81
2023-04-03T14:07:13.374Z,9.83
2023-04-03T14:09:39.812Z,9.57
2023-04-03T14:12:24.228Z,9.25
2023-04-03T14:14:57.441Z,9.06
2023-04-03T14:17:26.120Z,9.30
2023-04-03T14:19:56.175Z,9.45
2023-04-03T14:22:27.225Z,9.62
2023-04-03T14:24:54.177Z,9.56
2023-04-03T14:27:26.321Z,9.60
2023-04-03T14:29:57.147Z,9.36
2023-04-03T14:32:28.173Z,9.23
2023-04-03T14:34:55.034Z,9.33
2023-04-03T14:37:25.507Z,9.55
2023-04-03T14:39:55.496Z,9.35
2023-04-03T14:42:25.973Z,9.16
2023-04-03T14:44:52.507Z,9.23
2023-04-03T14:47:31.144Z,9.36
2023-04-03T14:50:03.541Z,9.32
2023-04-03T14:52:34.343Z,9.30
2023-04-03T14:55:01.944Z,9.37
2023-04-03T14:57:30.333Z,9.09
2023-04-03T14:59:57.246Z,9.07
2023-04-03T15:02:32.042Z,8.98
2023-04-03T15:05:00.245Z,9.21
2023-04-03T15:07:30.461Z,8.93
2023-04-03T15:09:57.500Z,9.03
2023-04-03T15:12:26.851Z,8.82
2023-04-03T15:15:01.737Z,9.18
2023-04-03T15:17:30.206Z,9.09
2023-04-03T15:19:56.929Z,9.07
2023-04-03T15:22:23.326Z,9.21
2023-04-03T15:24:52.383Z,9.27
2023-04-03T15:27:19.039Z,9.36
2023-04-03T15:29:46.484Z,9.09
2023-04-03T15:32:13.722Z,9.22
2023-04-03T15:34:43.818Z,9.13
2023-04-03T15:37:10.248Z,8.99
2023-04-03T15:39:36.682Z,8.94
2023-04-03T15:42:07.076Z,8.95
2023-04-03T15:44:37.239Z,8.58
2023-04-03T15:47:04.081Z,8.60
2023-04-03T15:49:33.153Z,8.57
2023-04-03T15:51:59.774Z,8.74
2023-04-03T15:54:26.332Z,8.32
2023-04-03T15:56:56.396Z,8.48
2023-04-03T15:59:25.202Z,8.54
2023-04-03T16:01:53.211Z,8.39
2023-04-03T16:04:21.642Z,8.42
2023-04-03T16:06:48.148Z,8.64
2023-04-03T16:09:14.683Z,8.59
2023-04-03T16:11:41.200Z,8.57
2023-04-03T16:14:11.339Z,8.55
2023-04-03T16:16:40.423Z,8.53
2023-04-03T16:19:07.014Z,8.52
2023-04-03T16:21:35.023Z,8.49
2023-04-03T16:24:02.493Z,8.57
2023-04-03T16:26:29.553Z,8.69
2023-04-03T16:28:58.418Z,8.57
2023-04-03T16:31:26.559Z,8.72
2023-04-03T16:33:55.545Z,8.59
2023-04-03T16:36:22.066Z,8.59
2023-04-03T16:38:48.680Z,8.43
2023-04-03T16:41:17.390Z,8.38
2023-04-03T16:43:44.202Z,8.47
2023-04-03T16:46:13.182Z,8.39
2023-04-03T16:48:39.595Z,8.47
2023-04-03T16:51:06.163Z,8.30
2023-04-03T16:53:32.713Z,8.30
2023-04-03T16:56:01.472Z,8.21
2023-04-03T16:58:27.924Z,8.07
2023-04-03T17:00:56.972Z,8.12
2023-04-03T17:03:26.487Z,8.10
2023-04-03T17:05:53.088Z,7.94
2023-04-03T17:08:20.224Z,8.14
2023-04-03T17:10:46.633Z,8.10
2023-04-03T17:13:13.299Z,8.10
2023-04-03T17:15:40.233Z,8.09
2023-04-03T17:18:08.195Z,8.01
2023-04-03T17:20:34.773Z,8.03
2023-04-03T17:23:01.463Z,7.86
2023-04-03T17:25:28.028Z,7.93
2023-04-03T17:27:54.734Z,7.64
2023-04-03T17:30:21.112Z,7.67
2023-04-03T17:32:47.571Z,7.76
2023-04-03T17:35:14.239Z,7.62
2023-04-03T17:37:40.702Z,7.73
2023-04-03T17:40:07.756Z,7.34
2023-04-03T17:42:34.176Z,7.32
2023-04-03T17:45:01.263Z,7.47
2023-04-03T17:47:29.976Z,7.32
2023-04-03T17:49:56.402Z,7.25
2023-04-03T17:52:25.375Z,7.16
2023-04-03T17:54:51.974Z,6.86
2023-04-03T17:57:18.602Z,6.79
2023-04-03T17:59:45.460Z,6.76
2023-04-03T18:02:11.894Z,6.78
2023-04-03T18:04:38.408Z,6.62
2023-04-03T18:07:09.685Z,6.58
2023-04-03T18:09:37.689Z,6.61
2023-04-03T18:12:09.959Z,6.68
2023-04-03T18:14:38.414Z,6.58
2023-04-03T18:17:08.015Z,6.54
2023-04-03T18:19:34.860Z,6.54
2023-04-03T18:22:04.692Z,6.16
2023-04-03T18:24:34.310Z,6.06
2023-04-03T18:27:04.214Z,5.89
2023-04-03T18:29:33.884Z,5.85
2023-04-03T18:32:04.280Z,6.01
2023-04-03T18:34:33.627Z,6.07
2023-04-03T18:37:00.900Z,5.99
2023-04-03T18:39:30.555Z,5.96
2023-04-03T18:42:02.932Z,6.00
2023-04-03T18:44:32.944Z,5.79
2023-04-03T18:47:02.325Z,5.86
2023-04-03T18:49:31.663Z,5.95
2023-04-03T18:51:58.473Z,5.97
2023-04-03T18:54:25.087Z,5.93
2023-04-03T18:56:51.648Z,5.89
2023-04-03T18:59:20.863Z,5.75
2023-04-03T19:01:47.455Z,5.60
2023-04-03T19:04:14.355Z,5.70
2023-04-03T19:06:41.007Z,5.65
2023-04-03T19:09:08.037Z,5.71
2023-04-03T19:11:34.838Z,5.63
2023-04-03T19:14:15.965Z,5.54
2023-04-03T19:16:43.712Z,5.42
2023-04-03T19:19:10.544Z,5.10
2023-04-03T19:21:41.490Z,5.34
2023-04-03T19:24:12.625Z,5.52
2023-04-03T19:26:39.869Z,5.65
2023-04-03T19:29:08.978Z,5.52
2023-04-03T19:31:37.206Z,5.57
2023-04-03T19:34:05.267Z,5.34
2023-04-03T19:36:33.128Z,5.29
2023-04-03T19:38:59.667Z,5.30
2023-04-03T19:41:30.187Z,5.21
2023-04-03T19:43:57.346Z,5.25
2023-04-03T19:46:25.885Z,5.32
2023-04-03T19:48:52.724Z,5.21
2023-04-03T19:51:21.771Z,5.22
2023-04-03T19:53:48.614Z,5.18
2023-04-03T19:56:16.901Z,5.16
2023-04-03T19:58:44.081Z,5.24
2023-04-03T20:01:10.602Z,5.22
2023-04-03T20:03:36.919Z,5.22
2023-04-03T20:06:04.948Z,5.05
2023-04-03T20:08:31.750Z,5.14
2023-04-03T20:10:58.139Z,5.04
2023-04-03T20:13:27.285Z,5.00
2023-04-03T20:15:53.759Z,4.98
2023-04-03T20:18:24.169Z,4.62
2023-04-03T20:20:55.174Z,4.77
2023-04-03T20:23:21.787Z,4.54
2023-04-03T20:26:01.433Z,4.57
2023-04-03T20:28:36.241Z,4.65
2023-04-03T20:31:03.534Z,4.70
2023-04-03T20:33:30.129Z,4.75
2023-04-03T20:35:58.124Z,4.79
2023-04-03T20:38:25.212Z,4.79
2023-04-03T20:40:52.158Z,4.66
2023-04-03T20:43:19.740Z,4.71
2023-04-03T20:45:47.931Z,4.53
2023-04-03T20:48:15.068Z,4.59
2023-04-03T20:50:41.862Z,4.72
2023-04-03T20:53:12.176Z,4.66
2023-04-03T20:55:39.065Z,4.87
2023-04-03T20:58:06.008Z,4.70
2023-04-03T21:00:37.530Z,4.52
2023-04-03T21:03:04.053Z,4.59
2023-04-03T21:05:30.628Z,4.44
2023-04-03T21:08:37.519Z,4.44
2023-04-03T21:11:41.379Z,4.68
2023-04-03T21:14:46.758Z,4.68
2023-04-03T21:17:13.400Z,4.36
2023-04-03T21:19:45.977Z,4.44
2023-04-03T21:22:16.141Z,4.44
2023-04-03T21:24:44.320Z,4.30
2023-04-03T21:27:11.347Z,4.30
2023-04-03T21:29:40.453Z,4.36
2023-04-03T21:32:09.505Z,4.69
2023-04-03T21:34:35.877Z,4.27
2023-04-03T21:37:04.879Z,4.19
2023-04-03T21:39:31.604Z,4.26
2023-04-03T21:41:58.002Z,4.40
2023-04-03T21:44:28.608Z,4.34
2023-04-03T21:46:55.387Z,4.47
2023-04-03T21:49:23.205Z,4.40
2023-04-03T21:51:53.290Z,4.18
2023-04-03T21:54:20.610Z,4.32
2023-04-03T21:56:51.400Z,4.03
2023-04-03T21:59:18.210Z,3.95
2023-04-03T22:01:44.893Z,4.05
2023-04-03T22:04:11.474Z,4.19
2023-04-03T22:06:38.181Z,4.25
2023-04-03T22:09:04.861Z,4.18
2023-04-03T22:11:31.268Z,4.11
2023-04-03T22:14:00.233Z,3.91
2023-04-03T22:16:27.392Z,4.01
2023-04-03T22:18:54.657Z,3.93
2023-04-03T22:21:23.329Z,3.95
2023-04-03T22:23:49.779Z,4.11
2023-04-03T22:26:17.330Z,4.11
2023-04-03T22:28:47.074Z,4.00
2023-04-03T22:31:14.881Z,4.03
2023-04-03T22:33:42.425Z,4.10
2023-04-03T22:36:11.890Z,4.14
2023-04-03T22:38:43.342Z,4.15
2023-04-03T22:41:10.768Z,4.13
2023-04-03T22:43:37.927Z,3.96
2023-04-03T22:46:06.628Z,4.12
2023-04-03T22:48:35.644Z,3.57
2023-04-03T22:51:07.443Z,3.60
2023-04-03T22:53:35.011Z,3.87
2023-04-03T22:56:03.644Z,3.75
2023-04-03T22:58:30.414Z,3.75
2023-04-03T23:01:07.746Z,3.65
2023-04-03T23:03:38.732Z,3.94
2023-04-03T23:06:06.459Z,3.93
2023-04-03T23:08:34.999Z,3.58
2023-04-03T23:11:04.433Z,3.54
2023-04-03T23:13:30.977Z,3.50
2023-04-03T23:15:59.852Z,3.16
2023-04-03T23:18:29.447Z,3.18
2023-04-03T23:20:56.980Z,3.30
2023-04-03T23:23:24.500Z,3.31
2023-04-03T23:25:54.964Z,3.32
2023-04-03T23:28:21.615Z,3.10
2023-04-03T23:30:48.122Z,3.04
2023-04-03T23:33:15.127Z,2.94
2023-04-03T23:35:46.678Z,2.91
2023-04-03T23:38:13.482Z,3.04
2023-04-03T23:40:41.773Z,3.40
2023-04-03T23:43:08.794Z,2.88
2023-04-03T23:45:35.636Z,2.90
2023-04-03T23:48:02.279Z,2.94
2023-04-03T23:50:31.268Z,2.95
2023-04-03T23:52:57.785Z,2.97
2023-04-03T23:55:24.416Z,3.24
2023-04-03T23:57:50.784Z,2.81
